MMCPMHRO

Guest
Details From MMCP - INGENIERO ALBERTO ACUNA ONGAY INTL
To MHRO - Roatan
Flight Number -
Tags generated
Created
Modified
Stats Distance 331 nm / 612 km
Max Altitude 35,000 ft / 10,668 m
Waypoints 7
Social Downloads 1
Likes 0
Share VATSIM

Download

Looking for another format? Having issues loading an existing format? Contact us
Advertisement - Login to hide

Notes

Basic altitude profile: - Ascent Rate: 2500ft/min - Ascent Speed: 250kts - Cruise Altitude: 35000ft - Cruise Speed: 420kts - Descent Rate: 1500ft/min - Descent Speed: 250kts Options: - Use NATs: yes - Use PACOTS: yes - Use low airways: no - Use high airways: yes

Route

MMCP DANIS UJ61 CTM UR899 ANEGA MHRO

ID Type Via Altitude Latitude Longitude Leg Dist Tot Dist Heading (true) Name
O MMCP APT - 0 ft / 0 m 19.81679˚ -90.50031˚ - 0 nm - INGENIERO ALBERTO ACUNA ONGAY INTL
DANIS FIX - 23,200 ft / 7,071 m 19.24100˚ -89.52581˚ 65 nm 65 nm 122° / 122° -
CTM VOR UJ61 (AWY-HI) 35,000 ft / 10,668 m 18.50931˚ -88.33367˚ 80 nm 145 nm 123° / 123° CHETUMAL VOR-DME
ULEVA FIX UR899 (AWY-HI) 31,400 ft / 9,571 m 17.95500˚ -88.31500˚ 33 nm 179 nm 178° / 178° -
BZE VOR UR899 (AWY-HI) 27,000 ft / 8,230 m 17.53961˚ -88.31397˚ 24 nm 204 nm 180° / 180° BELIZE VOR-DME
ANEGA FIX UR899 (AWY-HI) 21,700 ft / 6,614 m 17.29694˚ -87.95917˚ 25 nm 229 nm 126° / 126° -
O MHRO APT - 0 ft / 0 m 16.31682˚ -86.52296˚ 101 nm 330 nm 125° / 126° Roatan

Altitude Profile

Advertisement - Login to hide

Weather


0- 5 10 15 20 25 30 35+ Temperature / ° C

Clouds and Precipitation
Forecast for 2017-12-15 18:00 UTC. Updated an hour ago

Ground ~20,000 ft ~40,000 ft Winds

MMCP

Details ICAO MMCP (CPE)
Name INGENIERO ALBERTO ACUNA ONGAY INTL
Region Mexico
Timezone America/Merida (UTC-6.0)
Stats Elevation 34 ft / 10 m (AMSL)
Location 19.816795° -90.500314°
Runways 1
Magnetic Variation 0.393° E

METAR

MMCP 151543Z 09006KT 7SM SCT050 24/21 A3000 RMK 8/400

Decode

TAF

TAF AMD MMCP 151417Z 1514/1606 00000KT 6SM HZ BKN070 FM151600 12008KT 6SM HZ SCT020 BKN070 FM152000 34012KT 6SM HZ SCT030 BKN080 BECMG 1601/1602 36006KT

Decode

Departure Runways

ID Width Length Bearing (true) Bearing (mag) Surface Threshold Offset Overrun Length
16 148 ft / 45 m 8,264 ft / 2,519 m 166.22° 165.83° Asphalt 0 ft / 0 m 0 ft / 0 m
34 148 ft / 45 m 8,264 ft / 2,519 m 346.22° 345.83° Asphalt 0 ft / 0 m 160 ft / 49 m

MHRO

Details ICAO MHRO (RTB)
Name Roatan
Region Honduras
Timezone Unknown (UTC+0.0)
Stats Elevation 18 ft / 5 m (AMSL)
Location 16.316816° -86.522961°
Runways 1
Magnetic Variation 1.410° W

METAR

MHRO 151600Z 09010KT 9999 FEW020 28/22 Q1016 A3000 NOSIG

Decode

TAF

Not found

Destination Runways

ID Width Length Bearing (true) Bearing (mag) Surface Threshold Offset Overrun Length
07 148 ft / 45 m 7,353 ft / 2,241 m 65.06° 66.47° Asphalt 200 ft / 61 m 0 ft / 0 m
25 148 ft / 45 m 7,353 ft / 2,241 m 245.06° 246.47° Asphalt 0 ft / 0 m 0 ft / 0 m

Popular Alternatives